Despina — SVDK — position and weather

sailwx.info

Track history (hours):
 
Tides and Currents Weather Stations Pressure Air Temp Water Temp Dewpoint Dewpoint Depression Visibility Wind Speed Wind Dir Waves Ship Positions

Despina

Last reported at 2016-Apr-14 21:34 UTC. Time now 2016-May-06 16:49 UTC.
Position S 34°46' W 057°32'.
Warning: this ship's position is 21 days out of date.

Length 225 m; draft 10.5 m.

Type: Cargo ship. MMSI: 239469000.

Date/timePositionNaut miles runAvg speedWind from/ knotsBaromVisibWave heightAir tempDewpointWater temp
2016-Apr-14 21:34S 34°46' W 057°32'1110.6
2016-Apr-14 20:33S 34°44' W 057°45'9 8.6
2016-Apr-14 19:33S 34°42' W 057°55'1010.2
2016-Apr-14 18:32S 34°38' W 058°07'  
2016-Apr-08 07:18S 34°12' W 058°08'7 8.7
2016-Apr-08 06:33S 34°17' W 058°03'9 9.4
2016-Apr-08 05:33S 34°25' W 057°58'9 9.5
2016-Apr-08 04:33S 34°35' W 057°56'8 7.5
2016-Apr-08 03:33S 34°42' W 057°54'7 6.5
2016-Apr-08 02:33S 34°44' W 057°47'9 9.2
2016-Apr-08 01:33S 34°45' W 057°36'47 9.2
2016-Apr-07 20:28S 35°10' W 056°47'2210.1
2016-Apr-07 18:15S 35°10' W 056°20'9 9.9
2016-Apr-07 17:22S 35°08' W 056°09'  
Track history (hours):
 
Tides and Currents Weather Stations Pressure Air Temp Water Temp Dewpoint Dewpoint Depression Visibility Wind Speed Wind Dir Waves Ship Positions

Despina

Last reported at 2016-Apr-14 21:34 UTC. Time now 2016-May-06 16:49 UTC.
Position S 34°46' W 057°32'.
Warning: this ship's position is 21 days out of date.

Length 225 m; draft 10.5 m.

Type: Cargo ship. MMSI: 239469000.

Date/timePositionNaut miles runAvg speedWind from/ knotsBaromVisibWave heightAir tempDewpointWater temp
2016-Apr-14 21:34S 34°46' W 057°32'1110.6
2016-Apr-14 20:33S 34°44' W 057°45'9 8.6
2016-Apr-14 19:33S 34°42' W 057°55'1010.2
2016-Apr-14 18:32S 34°38' W 058°07'  
2016-Apr-08 07:18S 34°12' W 058°08'7 8.7
2016-Apr-08 06:33S 34°17' W 058°03'9 9.4
2016-Apr-08 05:33S 34°25' W 057°58'9 9.5
2016-Apr-08 04:33S 34°35' W 057°56'8 7.5
2016-Apr-08 03:33S 34°42' W 057°54'7 6.5
2016-Apr-08 02:33S 34°44' W 057°47'9 9.2
2016-Apr-08 01:33S 34°45' W 057°36'47 9.2
2016-Apr-07 20:28S 35°10' W 056°47'2210.1
2016-Apr-07 18:15S 35°10' W 056°20'9 9.9
2016-Apr-07 17:22S 35°08' W 056°09'  

Dump ship's entire track history